Time;durP1;ratioP1;P1;durP2;ratioP2;P2;SDS_P1;SDS_P2;PMS_P1;PMS_P2;Temp;Humidity;BMP_temperature;BMP_pressure;BME280_temperature;BME280_humidity;BME280_pressure;Samples;Min_cycle;Max_cycle;Signal;HPM_P1;HPM_P2
2022/12/24 00:00:59;;;;;;;13.57;12.60;;;12.50;99.90;;;;;;6209548;23;20408;-75
2022/12/24 00:03:26;;;;;;;11.63;10.93;;;12.50;99.90;;;;;;6209439;23;20749;-75
2022/12/24 00:05:53;;;;;;;12.33;11.63;;;12.50;99.90;;;;;;6209564;23;20415;-76
2022/12/24 00:08:20;;;;;;;10.80;10.40;;;12.50;99.90;;;;;;6209603;23;20424;-76
2022/12/24 00:10:50;;;;;;;12.47;11.63;;;12.60;99.90;;;;;;6209493;23;20709;-76
2022/12/24 00:13:18;;;;;;;11.53;10.67;;;12.70;99.90;;;;;;6209678;23;20447;-75
2022/12/24 00:15:46;;;;;;;10.40;9.97;;;12.70;99.90;;;;;;6210489;23;20455;-76
2022/12/24 00:18:13;;;;;;;11.67;10.40;;;12.70;99.90;;;;;;6209631;23;20530;-76
2022/12/24 00:20:39;;;;;;;11.67;10.97;;;12.80;99.90;;;;;;6209291;23;20752;-76
2022/12/24 00:23:06;;;;;;;11.70;10.90;;;12.80;99.90;;;;;;6209887;23;20874;-75
2022/12/24 00:25:33;;;;;;;12.10;11.43;;;12.80;99.90;;;;;;6209728;23;20762;-75
2022/12/24 00:28:00;;;;;;;11.07;10.67;;;12.80;99.90;;;;;;6209566;23;20424;-75
2022/12/24 00:30:26;;;;;;;12.37;11.43;;;12.70;99.90;;;;;;6209292;23;20416;-76
2022/12/24 00:32:54;;;;;;;11.90;11.20;;;12.80;99.90;;;;;;6209297;23;20419;-75
2022/12/24 00:35:21;;;;;;;13.40;12.50;;;12.70;99.90;;;;;;6209508;23;20440;-75
2022/12/24 00:37:48;;;;;;;12.47;11.40;;;12.70;99.90;;;;;;6209537;23;20796;-75
2022/12/24 00:40:15;;;;;;;11.63;11.03;;;12.70;99.90;;;;;;6209313;23;20416;-75
2022/12/24 00:42:42;;;;;;;12.37;11.37;;;12.70;99.90;;;;;;6209508;23;20473;-75
2022/12/24 00:45:10;;;;;;;11.63;10.80;;;12.70;99.90;;;;;;6209515;23;20416;-74
2022/12/24 00:47:37;;;;;;;12.00;11.50;;;12.70;99.90;;;;;;6209240;23;20869;-75
2022/12/24 00:50:06;;;;;;;11.30;10.80;;;12.70;99.90;;;;;;6209250;23;20796;-75
2022/12/24 00:52:33;;;;;;;11.37;10.80;;;12.80;99.90;;;;;;6209367;23;20717;-75
2022/12/24 00:54:59;;;;;;;10.40;10.00;;;12.80;99.90;;;;;;6209531;23;20449;-74
2022/12/24 00:57:26;;;;;;;11.70;10.83;;;12.80;99.90;;;;;;6209428;23;20548;-74
2022/12/24 00:59:53;;;;;;;12.37;11.30;;;12.70;99.90;;;;;;6209369;23;20788;-74
2022/12/24 01:02:21;;;;;;;12.20;11.23;;;12.60;99.90;;;;;;6209457;23;20761;-75
2022/12/24 01:07:33;;;;;;;12.60;12.00;;;12.60;99.90;;;;;;6211536;23;20435;-75
2022/12/24 01:10:00;;;;;;;11.83;11.23;;;12.60;99.90;;;;;;6211676;23;20705;-75
2022/12/24 01:12:26;;;;;;;11.63;11.03;;;12.60;99.90;;;;;;6211512;23;20404;-75
2022/12/24 01:14:53;;;;;;;11.80;11.20;;;12.60;99.90;;;;;;6211141;23;20444;-75
2022/12/24 01:17:20;;;;;;;12.60;11.77;;;12.60;99.90;;;;;;6211371;23;20408;-74
2022/12/24 01:19:46;;;;;;;12.10;11.33;;;12.70;99.90;;;;;;6211357;23;20412;-75
2022/12/24 01:22:13;;;;;;;13.23;12.20;;;12.70;99.90;;;;;;6211357;23;20409;-74
2022/12/24 01:24:42;;;;;;;12.57;11.60;;;12.70;99.90;;;;;;6211419;23;20496;-74
2022/12/24 01:27:09;;;;;;;12.60;12.00;;;12.70;99.90;;;;;;6211248;23;20405;-74
2022/12/24 01:29:35;;;;;;;14.13;13.23;;;12.50;99.90;;;;;;6211792;23;20423;-74
2022/12/24 01:32:02;;;;;;;13.70;13.07;;;12.40;99.90;;;;;;6211680;23;20405;-75
2022/12/24 01:34:29;;;;;;;13.90;13.20;;;12.30;99.90;;;;;;6211369;23;20444;-75
2022/12/24 01:36:55;;;;;;;13.63;13.03;;;12.30;99.90;;;;;;6211350;23;20416;-74
2022/12/24 01:39:22;;;;;;;13.83;13.20;;;12.10;99.90;;;;;;6211080;23;20413;-74
2022/12/24 01:44:39;;;;;;;16.70;15.60;;;11.90;99.90;;;;;;6210737;23;20401;-74
2022/12/24 01:47:10;;;;;;;18.70;17.40;;;11.90;99.90;;;;;;6211564;23;20416;-73
2022/12/24 01:49:39;;;;;;;25.40;24.20;;;11.80;99.90;;;;;;6215197;23;20436;-71
2022/12/24 01:52:08;;;;;;;38.63;36.07;;;11.70;99.90;;;;;;6213034;23;20942;-71
2022/12/24 01:54:39;;;;;;;39.77;37.57;;;11.70;99.90;;;;;;6211356;23;20448;-72
2022/12/24 01:57:10;;;;;;;39.87;37.63;;;11.50;99.90;;;;;;6210534;23;20444;-73
2022/12/24 01:59:39;;;;;;;40.20;37.67;;;11.50;99.90;;;;;;6211367;23;20684;-72
2022/12/24 02:02:06;;;;;;;38.80;36.57;;;11.40;99.90;;;;;;6211297;23;20424;-72
2022/12/24 02:04:37;;;;;;;40.80;38.40;;;11.40;99.90;;;;;;6210900;23;20447;-72
2022/12/24 02:07:04;;;;;;;41.00;38.40;;;11.40;99.90;;;;;;6210584;23;20861;-74
2022/12/24 02:09:32;;;;;;;40.93;38.53;;;11.40;99.90;;;;;;6210709;23;20417;-72
2022/12/24 02:11:59;;;;;;;40.70;38.03;;;11.30;99.90;;;;;;6210700;23;20496;-73
2022/12/24 02:14:31;;;;;;;41.13;38.37;;;11.30;99.90;;;;;;6210084;23;20452;-72
2022/12/24 02:17:04;;;;;;;40.80;38.20;;;11.40;99.90;;;;;;6210618;23;20401;-72
2022/12/24 02:20:06;;;;;;;43.07;40.67;;;11.30;99.90;;;;;;6210683;23;20393;-76
2022/12/24 02:22:46;;;;;;;40.60;38.50;;;11.30;99.90;;;;;;6210619;23;20456;-76
2022/12/24 02:25:32;;;;;;;40.67;38.37;;;11.20;99.90;;;;;;6210456;23;20385;-76
2022/12/24 02:28:07;;;;;;;43.10;40.17;;;11.20;99.90;;;;;;6210804;23;20411;-76
2022/12/24 02:30:41;;;;;;;41.20;38.63;;;11.20;99.90;;;;;;6210265;23;20397;-76
2022/12/24 02:33:25;;;;;;;40.33;38.00;;;11.10;99.90;;;;;;6210618;23;20385;-76
2022/12/24 02:35:59;;;;;;;40.90;38.17;;;11.00;99.90;;;;;;6210474;23;20691;-76
2022/12/24 02:38:29;;;;;;;42.90;40.00;;;10.90;99.90;;;;;;6210867;23;20397;-77
2022/12/24 02:41:00;;;;;;;40.63;37.93;;;10.90;99.90;;;;;;6211222;23;20712;-79
2022/12/24 02:43:32;;;;;;;39.73;37.10;;;10.80;99.90;;;;;;6210439;23;20879;-76
2022/12/24 02:46:03;;;;;;;40.10;37.67;;;10.80;99.90;;;;;;6210244;23;20373;-76
2022/12/24 02:48:31;;;;;;;40.57;38.07;;;10.80;99.90;;;;;;6210670;23;20393;-78
2022/12/24 02:51:02;;;;;;;39.93;37.63;;;10.90;99.90;;;;;;6210243;23;20917;-77
2022/12/24 02:53:29;;;;;;;41.47;38.77;;;10.90;99.90;;;;;;6210823;23;20394;-77
2022/12/24 02:56:24;;;;;;;41.30;38.80;;;10.90;99.90;;;;;;6209564;23;20928;-76
2022/12/24 02:59:02;;;;;;;41.30;38.60;;;10.90;99.90;;;;;;6194208;23;20443;-76
2022/12/24 03:01:41;;;;;;;43.53;40.83;;;10.80;99.90;;;;;;6210368;23;20400;-77
2022/12/24 03:04:14;;;;;;;39.57;37.20;;;10.70;99.90;;;;;;6209998;23;20708;-77
2022/12/24 03:06:49;;;;;;;39.07;36.87;;;10.50;99.90;;;;;;6210370;23;20432;-77
2022/12/24 03:09:25;;;;;;;39.57;36.57;;;10.50;99.90;;;;;;6210250;23;20412;-78
2022/12/24 03:11:58;;;;;;;36.80;34.43;;;10.40;99.90;;;;;;6209903;23;20697;-78
2022/12/24 03:14:27;;;;;;;37.80;35.70;;;10.40;99.90;;;;;;6210037;23;20389;-78
2022/12/24 03:16:56;;;;;;;36.20;34.20;;;10.50;99.90;;;;;;6210505;23;20419;-77
2022/12/24 03:19:25;;;;;;;38.20;35.73;;;10.50;99.90;;;;;;6210129;23;20416;-77
2022/12/24 03:21:54;;;;;;;38.63;36.20;;;10.60;99.90;;;;;;6209758;23;20739;-77
2022/12/24 03:24:21;;;;;;;36.70;34.67;;;10.60;99.90;;;;;;6209828;23;20418;-78
2022/12/24 03:26:48;;;;;;;37.33;35.00;;;10.50;99.90;;;;;;6210008;23;20471;-75
2022/12/24 03:29:15;;;;;;;38.23;36.10;;;10.50;99.90;;;;;;6210232;23;20893;-77
2022/12/24 03:31:43;;;;;;;38.20;35.50;;;10.50;99.90;;;;;;6209806;23;20896;-77
2022/12/24 03:34:12;;;;;;;36.10;33.67;;;10.40;99.90;;;;;;6210061;23;20405;-79
2022/12/24 03:36:38;;;;;;;35.37;33.27;;;10.40;99.90;;;;;;6209585;23;20444;-79
2022/12/24 03:39:06;;;;;;;36.17;33.50;;;10.40;99.90;;;;;;6209588;23;20415;-78
2022/12/24 03:41:33;;;;;;;35.00;32.70;;;10.40;99.90;;;;;;6210077;23;20408;-79
2022/12/24 03:44:00;;;;;;;34.97;32.67;;;10.30;99.90;;;;;;6209878;23;20409;-78
2022/12/24 03:46:26;;;;;;;36.93;34.17;;;10.30;99.90;;;;;;6209924;23;20872;-80
2022/12/24 03:48:53;;;;;;;36.00;33.40;;;10.40;99.90;;;;;;6209994;23;20431;-80
2022/12/24 03:51:23;;;;;;;35.23;32.67;;;10.40;99.90;;;;;;6209597;23;20412;-76
2022/12/24 03:53:51;;;;;;;36.60;34.17;;;10.40;99.90;;;;;;6209359;23;20419;-75
2022/12/24 03:56:19;;;;;;;35.07;32.80;;;10.30;99.90;;;;;;6209095;23;20784;-75
2022/12/24 03:58:47;;;;;;;36.07;33.50;;;10.20;99.90;;;;;;6209293;23;20488;-77
2022/12/24 04:01:14;;;;;;;34.10;31.93;;;10.20;99.90;;;;;;6209718;23;20616;-77
2022/12/24 04:03:40;;;;;;;34.00;31.73;;;10.20;99.90;;;;;;6210456;23;20483;-77
2022/12/24 04:06:09;;;;;;;35.13;32.50;;;10.20;99.90;;;;;;6209763;23;20405;-76
2022/12/24 04:08:38;;;;;;;35.03;32.87;;;10.20;99.90;;;;;;6209577;23;20438;-76
2022/12/24 04:11:05;;;;;;;35.40;33.20;;;10.20;99.90;;;;;;6209632;23;20413;-74
2022/12/24 04:13:32;;;;;;;36.77;34.13;;;10.20;99.90;;;;;;6209380;23;20440;-74
2022/12/24 04:16:00;;;;;;;35.70;33.37;;;10.20;99.90;;;;;;6209417;23;20440;-75
2022/12/24 04:18:27;;;;;;;36.70;34.00;;;10.20;99.90;;;;;;6209491;23;20409;-74
2022/12/24 04:20:54;;;;;;;38.33;35.87;;;10.20;99.90;;;;;;6209422;23;20707;-75
2022/12/24 04:23:21;;;;;;;39.03;36.10;;;10.20;99.90;;;;;;6209160;23;20413;-74
2022/12/24 04:25:49;;;;;;;39.60;36.83;;;10.40;99.90;;;;;;6209331;23;20416;-74
2022/12/24 04:28:16;;;;;;;40.20;37.07;;;10.20;99.90;;;;;;6209404;23;20408;-74
2022/12/24 04:30:44;;;;;;;37.93;35.53;;;10.30;99.90;;;;;;6209958;23;20413;-74
2022/12/24 04:33:11;;;;;;;38.63;36.13;;;10.30;99.90;;;;;;6210207;23;20439;-76
2022/12/24 04:35:40;;;;;;;38.93;36.30;;;10.20;99.90;;;;;;6209585;23;20443;-76
2022/12/24 04:38:07;;;;;;;38.17;35.57;;;10.20;99.90;;;;;;6210414;23;20412;-76
2022/12/24 04:40:33;;;;;;;39.40;36.23;;;10.20;99.90;;;;;;6211332;23;20876;-76
2022/12/24 04:43:02;;;;;;;37.13;34.90;;;10.20;99.90;;;;;;6211750;23;20409;-77
2022/12/24 04:45:28;;;;;;;38.97;36.47;;;10.20;99.90;;;;;;6211519;23;20597;-75
2022/12/24 04:47:55;;;;;;;41.03;38.40;;;10.20;99.90;;;;;;6211525;23;20590;-75
2022/12/24 04:50:22;;;;;;;39.77;36.73;;;10.20;99.90;;;;;;6210982;23;20420;-75
2022/12/24 04:52:48;;;;;;;40.40;37.70;;;10.20;99.90;;;;;;6212490;23;20487;-75
2022/12/24 04:55:15;;;;;;;39.53;36.60;;;10.20;99.90;;;;;;6212634;23;20447;-75
2022/12/24 04:57:42;;;;;;;37.83;35.30;;;10.10;99.90;;;;;;6212880;23;20440;-75
2022/12/24 05:00:11;;;;;;;38.40;36.10;;;10.20;99.90;;;;;;6212977;23;20440;-76
2022/12/24 05:02:38;;;;;;;37.40;34.77;;;10.20;99.90;;;;;;6212601;23;20405;-76
2022/12/24 05:05:06;;;;;;;37.77;35.23;;;10.20;99.90;;;;;;6212921;23;20412;-77
2022/12/24 05:07:34;;;;;;;40.00;37.60;;;10.30;99.90;;;;;;6212798;23;20409;-77
2022/12/24 05:10:00;;;;;;;39.93;37.30;;;10.30;99.90;;;;;;6213092;23;20412;-77
2022/12/24 05:12:27;;;;;;;37.67;35.20;;;10.20;99.90;;;;;;6213220;23;20416;-78
2022/12/24 05:14:54;;;;;;;39.73;36.73;;;10.20;99.90;;;;;;6213299;23;20401;-78
2022/12/24 05:17:22;;;;;;;37.40;34.97;;;10.10;99.90;;;;;;6212636;23;20471;-77
2022/12/24 05:19:49;;;;;;;38.07;35.63;;;10.00;99.90;;;;;;6212702;23;20765;-77
2022/12/24 05:27:44;;;;;;;34.17;32.10;;;9.90;99.90;;;;;;6212955;23;20368;-79
2022/12/24 05:30:11;;;;;;;33.93;31.00;;;10.00;99.90;;;;;;6212987;23;20413;-79
2022/12/24 05:32:39;;;;;;;31.50;29.67;;;10.00;99.90;;;;;;6212375;23;20732;-81
2022/12/24 05:35:06;;;;;;;31.77;29.80;;;10.10;99.90;;;;;;6212610;23;20698;-81
2022/12/24 05:37:32;;;;;;;27.00;25.80;;;10.10;99.90;;;;;;6212978;23;20723;-81
2022/12/24 05:39:59;;;;;;;26.33;24.77;;;10.10;99.90;;;;;;6237497;23;20395;-79
2022/12/24 05:42:26;;;;;;;23.50;22.00;;;10.20;99.90;;;;;;6238114;23;20419;-79
2022/12/24 05:44:52;;;;;;;22.23;20.90;;;10.20;99.90;;;;;;6236117;23;20404;-78
2022/12/24 05:47:19;;;;;;;20.43;19.33;;;10.20;99.90;;;;;;6226442;23;20889;-77
2022/12/24 05:49:47;;;;;;;18.37;17.37;;;10.20;99.90;;;;;;6214897;23;20440;-78
2022/12/24 05:52:14;;;;;;;19.80;18.40;;;10.30;99.90;;;;;;6213017;23;20915;-78
2022/12/24 05:54:41;;;;;;;17.80;16.47;;;10.30;99.90;;;;;;6212878;23;20408;-78
2022/12/24 05:57:08;;;;;;;17.30;16.20;;;10.30;99.90;;;;;;6211804;23;20452;-77
2022/12/24 05:59:34;;;;;;;15.70;15.00;;;10.30;99.90;;;;;;6212485;23;20449;-74
2022/12/24 06:02:01;;;;;;;16.43;15.53;;;10.30;99.90;;;;;;6212373;23;20409;-76
2022/12/24 06:04:28;;;;;;;15.63;14.50;;;10.30;99.90;;;;;;6212898;23;20409;-77
2022/12/24 06:06:56;;;;;;;14.93;13.97;;;10.30;99.90;;;;;;6212925;23;20404;-76
2022/12/24 06:09:23;;;;;;;15.17;14.33;;;10.30;99.90;;;;;;6211921;23;20895;-76
2022/12/24 06:11:49;;;;;;;15.27;14.37;;;10.30;99.90;;;;;;6212319;23;20412;-75
2022/12/24 06:14:16;;;;;;;14.27;13.43;;;10.40;99.90;;;;;;6212011;23;20909;-76
2022/12/24 06:16:43;;;;;;;14.37;13.53;;;10.30;99.90;;;;;;6212664;23;20743;-75
2022/12/24 06:19:09;;;;;;;14.93;14.10;;;10.40;99.90;;;;;;6212403;23;20412;-75
2022/12/24 06:21:36;;;;;;;14.90;13.67;;;10.40;99.90;;;;;;6212180;23;20417;-76
2022/12/24 06:24:05;;;;;;;14.73;13.93;;;10.40;99.90;;;;;;6212231;23;20412;-77
2022/12/24 06:26:31;;;;;;;14.50;13.80;;;10.50;99.90;;;;;;6212122;23;20711;-76
2022/12/24 06:28:58;;;;;;;13.60;12.73;;;10.50;99.90;;;;;;6212469;23;20408;-76
2022/12/24 06:31:25;;;;;;;13.87;13.27;;;10.50;99.90;;;;;;6212835;23;20423;-77
2022/12/24 06:33:52;;;;;;;15.50;14.00;;;10.50;99.90;;;;;;6212210;23;20423;-77
2022/12/24 06:36:21;;;;;;;13.30;12.70;;;10.50;99.90;;;;;;6212096;23;20437;-76
2022/12/24 06:38:49;;;;;;;14.60;13.73;;;10.60;99.90;;;;;;6212004;23;20420;-75
2022/12/24 06:41:17;;;;;;;15.07;13.80;;;10.50;99.90;;;;;;6212075;23;20412;-77
2022/12/24 06:43:45;;;;;;;14.13;13.43;;;10.50;99.90;;;;;;6211605;23;20885;-76
2022/12/24 06:46:12;;;;;;;14.50;13.50;;;10.50;99.90;;;;;;6212117;23;20440;-77
2022/12/24 06:48:39;;;;;;;15.03;13.67;;;10.50;99.90;;;;;;6211956;23;20412;-80
2022/12/24 06:51:06;;;;;;;14.77;13.97;;;10.50;99.90;;;;;;6211868;23;20912;-77
2022/12/24 06:53:33;;;;;;;14.30;13.70;;;10.50;99.90;;;;;;6211960;23;20405;-76
2022/12/24 06:56:03;;;;;;;17.40;16.13;;;10.50;99.90;;;;;;6211341;23;20449;-75
2022/12/24 06:58:32;;;;;;;15.33;14.30;;;10.50;99.90;;;;;;6209562;23;20893;-74
2022/12/24 07:01:01;;;;;;;15.30;14.30;;;10.50;99.90;;;;;;6210619;23;20397;-75
2022/12/24 07:03:28;;;;;;;14.67;13.87;;;10.50;99.90;;;;;;6211621;23;20409;-75
2022/12/24 07:05:54;;;;;;;13.90;13.20;;;10.50;99.90;;;;;;6211906;23;20455;-76
2022/12/24 07:08:21;;;;;;;14.17;13.40;;;10.50;99.90;;;;;;6211489;23;20437;-76
2022/12/24 07:10:48;;;;;;;14.63;13.50;;;10.50;99.90;;;;;;6211860;23;20409;-76
2022/12/24 07:13:15;;;;;;;14.33;13.53;;;10.50;99.90;;;;;;6211524;23;20439;-75
2022/12/24 07:15:43;;;;;;;15.20;14.30;;;10.50;99.90;;;;;;6211724;23;20411;-75
2022/12/24 07:18:10;;;;;;;16.53;15.20;;;10.50;99.90;;;;;;6212130;23;20400;-75
2022/12/24 07:20:37;;;;;;;16.10;15.10;;;10.40;99.90;;;;;;6209455;23;20415;-76
2022/12/24 07:23:04;;;;;;;17.40;16.20;;;10.40;99.90;;;;;;6209592;23;20413;-74
2022/12/24 07:25:31;;;;;;;15.47;14.60;;;10.40;99.90;;;;;;6209656;23;20413;-75
2022/12/24 07:27:57;;;;;;;16.27;14.90;;;10.30;99.90;;;;;;6211547;23;20412;-76
2022/12/24 07:30:24;;;;;;;17.13;15.83;;;10.20;99.90;;;;;;6211238;23;20412;-76
2022/12/24 07:32:52;;;;;;;15.80;14.70;;;10.20;99.90;;;;;;6208695;23;21032;-76
2022/12/24 07:35:19;;;;;;;15.47;14.63;;;10.20;99.90;;;;;;6211075;23;20420;-76
2022/12/24 07:37:45;;;;;;;15.97;15.27;;;10.20;99.90;;;;;;6210858;23;20448;-76
2022/12/24 07:40:12;;;;;;;15.70;14.70;;;10.20;99.90;;;;;;6209092;23;20440;-75
2022/12/24 07:42:39;;;;;;;15.67;14.60;;;10.20;99.90;;;;;;6210604;23;20409;-74
2022/12/24 07:45:07;;;;;;;15.80;14.43;;;10.20;99.90;;;;;;6211135;23;20412;-75
2022/12/24 07:47:35;;;;;;;16.30;14.77;;;10.20;99.90;;;;;;6210772;23;20928;-75
2022/12/24 07:50:03;;;;;;;15.70;14.63;;;10.10;99.90;;;;;;6210271;23;20436;-76
2022/12/24 07:52:30;;;;;;;16.43;15.00;;;10.00;99.90;;;;;;6209974;23;20477;-75
2022/12/24 07:54:57;;;;;;;15.97;14.90;;;9.90;99.90;;;;;;6210776;23;20416;-76
2022/12/24 07:57:23;;;;;;;16.60;15.10;;;9.90;99.90;;;;;;6208878;23;20465;-75
2022/12/24 07:59:50;;;;;;;15.90;14.90;;;9.90;99.90;;;;;;6210405;23;20405;-75
2022/12/24 08:02:17;;;;;;;15.23;14.50;;;9.80;99.90;;;;;;6210668;23;20479;-75
2022/12/24 08:04:43;;;;;;;15.00;14.10;;;9.90;99.90;;;;;;6211273;23;20405;-78
2022/12/24 08:07:11;;;;;;;15.97;14.97;;;10.00;99.90;;;;;;6211017;23;20535;-75
2022/12/24 08:09:38;;;;;;;14.93;13.97;;;10.10;99.90;;;;;;6211515;23;20775;-76
2022/12/24 08:12:05;;;;;;;13.57;12.57;;;10.20;99.90;;;;;;6211187;23;20404;-76
2022/12/24 08:14:32;;;;;;;13.77;13.00;;;10.40;99.90;;;;;;6213061;23;20416;-75
2022/12/24 08:16:59;;;;;;;13.50;12.50;;;10.60;99.90;;;;;;6213609;23;20440;-76
2022/12/24 08:19:25;;;;;;;13.57;12.60;;;10.70;99.90;;;;;;6213431;23;20412;-76
2022/12/24 08:21:52;;;;;;;12.30;11.70;;;10.80;99.90;;;;;;6213240;23;20462;-76
2022/12/24 08:24:20;;;;;;;13.77;12.50;;;10.90;99.90;;;;;;6212933;23;20889;-75
2022/12/24 08:26:47;;;;;;;12.37;11.67;;;11.00;99.90;;;;;;6213555;23;20772;-76
2022/12/24 08:29:14;;;;;;;13.40;12.47;;;11.00;99.90;;;;;;6213472;23;20416;-76
2022/12/24 08:31:41;;;;;;;15.70;12.67;;;11.10;99.90;;;;;;6213528;23;20405;-76
2022/12/24 08:34:08;;;;;;;12.83;11.93;;;11.20;99.90;;;;;;6213301;23;20412;-79
2022/12/24 08:36:35;;;;;;;13.87;12.60;;;11.30;99.90;;;;;;6213720;23;20495;-76
2022/12/24 08:39:02;;;;;;;13.43;12.30;;;11.30;99.90;;;;;;6212891;23;20404;-77
2022/12/24 08:41:30;;;;;;;12.50;11.53;;;11.40;99.90;;;;;;6212874;23;20408;-75
2022/12/24 08:43:57;;;;;;;13.63;12.43;;;11.50;99.90;;;;;;6213077;23;20837;-76
2022/12/24 08:46:24;;;;;;;12.23;11.50;;;11.50;99.90;;;;;;6212928;23;20416;-77
2022/12/24 08:48:50;;;;;;;13.20;12.00;;;11.50;99.90;;;;;;6213636;23;20420;-79
2022/12/24 08:51:18;;;;;;;13.00;11.80;;;11.50;99.90;;;;;;6213582;23;20480;-77
2022/12/24 08:53:45;;;;;;;13.63;12.00;;;11.40;99.90;;;;;;6214165;23;20415;-77
2022/12/24 08:56:12;;;;;;;11.87;11.10;;;11.40;99.90;;;;;;6213756;23;20775;-77
2022/12/24 08:58:41;;;;;;;13.37;12.30;;;11.30;99.90;;;;;;6213770;23;20417;-79
2022/12/24 09:01:13;;;;;;;12.40;11.40;;;11.30;99.90;;;;;;6213551;23;20415;-76
2022/12/24 09:03:40;;;;;;;12.20;11.40;;;11.20;99.90;;;;;;6213442;23;20871;-77
2022/12/24 09:06:07;;;;;;;12.00;11.07;;;11.20;99.90;;;;;;6213629;23;20424;-77
2022/12/24 09:08:34;;;;;;;13.43;11.50;;;11.30;99.90;;;;;;6213618;23;20412;-78
2022/12/24 09:11:04;;;;;;;13.80;12.70;;;11.40;99.90;;;;;;6213750;23;20423;-77
2022/12/24 09:13:30;;;;;;;12.40;11.50;;;11.30;99.90;;;;;;6213393;23;20420;-77
2022/12/24 09:15:58;;;;;;;13.07;11.80;;;11.40;99.90;;;;;;6214522;23;20416;-78
2022/12/24 09:18:25;;;;;;;12.57;11.43;;;11.50;99.90;;;;;;6213747;23;20437;-75
2022/12/24 09:20:58;;;;;;;11.87;10.50;;;11.70;99.90;;;;;;6213504;23;20413;-77
2022/12/24 09:23:24;;;;;;;12.90;11.70;;;11.80;99.90;;;;;;6210821;23;20408;-76
2022/12/24 14:23:45;;;;;;;14.13;12.10;;;14.30;99.90;;;;;;6142908;23;20515;-77
2022/12/24 14:26:16;;;;;;;12.83;12.00;;;14.40;99.90;;;;;;6210697;23;20412;-75
2022/12/24 14:28:46;;;;;;;13.60;12.80;;;14.40;99.90;;;;;;6210563;23;20405;-75
2022/12/24 14:31:16;;;;;;;13.60;12.70;;;14.30;99.90;;;;;;6210785;23;20500;-75
2022/12/24 14:33:43;;;;;;;14.20;12.60;;;14.30;99.90;;;;;;6210335;23;20899;-75
2022/12/24 14:36:12;;;;;;;14.90;13.87;;;14.30;99.90;;;;;;6210261;23;20652;-75
2022/12/24 14:38:43;;;;;;;16.20;14.57;;;14.20;99.90;;;;;;6210456;23;20823;-75
2022/12/24 14:41:28;;;;;;;16.17;14.87;;;14.00;99.90;;;;;;6210836;23;20397;-76
2022/12/24 14:44:07;;;;;;;16.23;15.00;;;13.90;99.90;;;;;;6210744;23;20727;-76
2022/12/24 14:46:41;;;;;;;18.40;15.67;;;13.90;99.90;;;;;;6211148;23;20400;-75
2022/12/24 14:49:22;;;;;;;16.90;15.57;;;13.70;99.90;;;;;;6210833;23;20396;-76
2022/12/24 14:51:56;;;;;;;17.43;16.30;;;13.50;99.90;;;;;;6211099;23;20399;-76
2022/12/24 14:54:34;;;;;;;20.63;16.63;;;13.20;99.90;;;;;;6210568;23;20759;-76
2022/12/24 14:57:21;;;;;;;16.10;15.10;;;12.90;99.90;;;;;;6204850;23;20452;-75
2022/12/24 14:59:51;;;;;;;18.63;16.90;;;12.80;99.90;;;;;;6210838;23;20840;-76
2022/12/24 15:02:40;;;;;;;18.27;16.77;;;12.60;99.90;;;;;;6211045;23;20409;-74
2022/12/24 15:05:13;;;;;;;19.00;17.10;;;12.60;99.90;;;;;;6210712;23;20419;-75
2022/12/24 15:07:45;;;;;;;18.83;17.00;;;12.50;99.90;;;;;;6210434;23;20423;-78
2022/12/24 15:10:35;;;;;;;18.27;16.60;;;12.40;99.90;;;;;;6210771;23;20393;-76
2022/12/24 15:13:04;;;;;;;18.27;16.80;;;12.30;99.90;;;;;;6206482;23;20712;-76
2022/12/24 15:15:31;;;;;;;19.10;17.37;;;12.20;99.90;;;;;;6210972;23;20771;-75
2022/12/24 15:17:59;;;;;;;18.63;17.00;;;12.10;99.90;;;;;;6210066;23;20782;-75
2022/12/24 15:20:28;;;;;;;19.43;18.07;;;11.90;99.90;;;;;;6210584;23;20412;-74
2022/12/24 15:22:57;;;;;;;20.43;18.50;;;12.00;99.90;;;;;;6210219;23;20619;-76
2022/12/24 15:25:26;;;;;;;20.73;18.57;;;11.90;99.90;;;;;;6210007;23;20713;-76
2022/12/24 15:27:54;;;;;;;20.13;18.27;;;11.90;99.90;;;;;;6210365;23;20411;-76
2022/12/24 15:30:23;;;;;;;20.17;18.57;;;11.80;99.90;;;;;;6223367;23;20432;-76
2022/12/24 15:32:51;;;;;;;20.90;18.10;;;11.70;99.90;;;;;;6220330;23;20436;-77
2022/12/24 15:35:46;;;;;;;22.53;16.50;;;11.70;99.90;;;;;;6214500;23;20436;-75
2022/12/24 15:38:26;;;;;;;21.03;17.83;;;11.70;99.90;;;;;;6210201;23;20774;-76
2022/12/24 15:40:54;;;;;;;16.93;15.50;;;11.70;99.90;;;;;;6211612;23;20397;-75
2022/12/24 15:43:22;;;;;;;20.03;18.13;;;11.60;99.90;;;;;;6211767;23;20412;-76
2022/12/24 15:45:49;;;;;;;17.63;16.07;;;11.70;99.90;;;;;;6211744;23;20477;-74
2022/12/24 15:48:22;;;;;;;17.77;16.20;;;11.70;99.90;;;;;;6211440;23;20397;-76
2022/12/24 15:50:50;;;;;;;17.40;15.60;;;11.60;99.90;;;;;;6210999;23;20404;-76
2022/12/24 15:53:21;;;;;;;18.53;15.00;;;11.50;99.90;;;;;;6210681;23;20420;-76
2022/12/24 15:56:02;;;;;;;19.50;17.47;;;11.60;99.90;;;;;;6210444;23;20405;-76
2022/12/24 15:58:32;;;;;;;20.97;19.30;;;11.50;99.90;;;;;;6210620;23;20428;-76
2022/12/24 16:01:05;;;;;;;16.63;15.27;;;11.40;99.90;;;;;;6209886;23;20888;-77
2022/12/24 16:03:33;;;;;;;17.63;16.13;;;11.40;99.90;;;;;;6210826;23;20404;-75
2022/12/24 16:06:01;;;;;;;17.23;15.97;;;11.50;99.90;;;;;;6210682;23;20444;-77
2022/12/24 16:08:33;;;;;;;17.27;15.97;;;11.40;99.90;;;;;;6210266;23;20408;-75
2022/12/24 16:11:16;;;;;;;17.63;16.00;;;11.40;99.90;;;;;;6210415;23;20448;-76
2022/12/24 16:14:00;;;;;;;15.93;14.80;;;11.50;99.90;;;;;;6209922;23;20516;-76
2022/12/24 16:16:36;;;;;;;17.53;15.70;;;11.60;99.90;;;;;;6210328;23;20416;-76
2022/12/24 16:19:07;;;;;;;15.60;14.70;;;11.50;99.90;;;;;;6210233;23;20965;-75
2022/12/24 16:21:36;;;;;;;16.47;15.10;;;11.40;99.90;;;;;;6210180;23;20401;-76
2022/12/24 16:24:06;;;;;;;17.37;15.87;;;11.40;99.90;;;;;;6210119;23;20436;-76
2022/12/24 16:26:33;;;;;;;17.70;16.03;;;;;;;;;;6210669;23;20393;-76
2022/12/24 16:29:01;;;;;;;17.40;15.73;;;11.40;99.90;;;;;;6210397;23;20810;-76
2022/12/24 16:31:30;;;;;;;17.67;16.20;;;11.40;99.90;;;;;;6209858;23;20412;-75
2022/12/24 16:33:58;;;;;;;19.70;18.20;;;11.50;99.90;;;;;;6204080;23;20447;-76
2022/12/24 16:36:25;;;;;;;22.43;18.83;;;11.50;99.90;;;;;;6212178;23;20500;-75
2022/12/24 16:43:48;;;;;;;17.53;16.00;;;11.60;99.90;;;;;;6211731;23;20431;-75
2022/12/24 16:44:23;;;;;;;18.17;16.90;;;11.60;99.90;;;;;;6211676;23;20484;-76
2022/12/24 16:46:50;;;;;;;18.67;17.13;;;11.60;99.90;;;;;;6210936;23;20684;-76
2022/12/24 16:49:19;;;;;;;16.60;15.47;;;11.60;99.90;;;;;;6212510;23;20411;-76
2022/12/24 16:51:46;;;;;;;18.73;17.50;;;11.70;99.90;;;;;;6212734;23;20747;-75
2022/12/24 16:54:14;;;;;;;19.53;17.50;;;11.70;99.90;;;;;;6212413;23;20899;-76
2022/12/24 16:56:41;;;;;;;18.90;17.47;;;11.70;99.90;;;;;;6212810;23;20443;-76
2022/12/24 16:59:14;;;;;;;19.33;17.83;;;11.80;99.90;;;;;;6212701;23;20448;-76
2022/12/24 17:01:42;;;;;;;18.40;17.37;;;11.70;99.90;;;;;;6212959;23;20425;-76
2022/12/24 17:04:08;;;;;;;21.40;19.47;;;11.80;99.90;;;;;;6212738;23;20413;-75
2022/12/24 17:06:35;;;;;;;20.10;18.67;;;11.60;99.90;;;;;;6213440;23;20408;-75
2022/12/24 17:09:02;;;;;;;20.50;18.83;;;11.50;99.90;;;;;;6212105;23;20412;-75
2022/12/24 17:11:28;;;;;;;20.00;18.33;;;11.50;99.90;;;;;;6212214;23;20927;-76
2022/12/24 17:13:55;;;;;;;20.40;18.73;;;11.50;99.90;;;;;;6208079;23;20412;-75
2022/12/24 17:16:22;;;;;;;19.43;17.87;;;11.60;99.90;;;;;;6212410;23;20451;-75
2022/12/24 17:18:50;;;;;;;19.07;17.57;;;11.60;99.90;;;;;;6212602;23;20760;-76
2022/12/24 17:21:18;;;;;;;20.17;18.60;;;11.60;99.90;;;;;;6212589;23;20804;-75
2022/12/24 17:23:45;;;;;;;19.93;18.50;;;11.50;99.90;;;;;;6212055;23;20444;-76
2022/12/24 17:26:13;;;;;;;22.40;20.43;;;11.40;99.90;;;;;;6212483;23;20413;-76
2022/12/24 17:28:40;;;;;;;28.33;21.53;;;11.30;99.90;;;;;;6211985;23;20936;-76
2022/12/24 17:31:08;;;;;;;21.93;19.90;;;11.30;99.90;;;;;;6212123;23;20435;-76
2022/12/24 17:33:35;;;;;;;21.43;19.77;;;11.30;99.90;;;;;;6212428;23;20440;-76
2022/12/24 17:36:03;;;;;;;21.20;19.50;;;11.20;99.90;;;;;;6212047;23;20393;-76
2022/12/24 17:38:30;;;;;;;20.67;19.00;;;11.10;99.90;;;;;;6212048;23;20962;-76
2022/12/24 17:41:01;;;;;;;23.27;21.20;;;11.10;99.90;;;;;;6211783;23;20409;-76
2022/12/24 17:43:27;;;;;;;21.33;19.53;;;11.00;99.90;;;;;;6212371;23;20471;-75
2022/12/24 17:45:54;;;;;;;20.90;18.90;;;11.00;99.90;;;;;;6212110;23;20440;-74
2022/12/24 17:48:21;;;;;;;20.80;19.03;;;11.20;99.90;;;;;;6212617;23;20400;-76